Ava Foss — WDF5779 — position and weather

sailwx.info

Track history (hours):
 
Tides and Currents Weather Stations Pressure Air Temp Water Temp Dewpoint Dewpoint Depression Visibility Wind Speed Wind Dir Waves Ship Positions

Ava Foss

Owner: Foss Maritime Company, Seattle, WA. More information available from US FCC via Universal Licensing System and Coast Guard Vessel Documentation Center.

Last reported at 2015-Mar-04 11:21 UTC. Time now 2015-Mar-04 12:52 UTC.
Position N 33°51' W 118°24'.

Length 10 m; draft 2.5 m.

Type: Passenger vessel. MMSI: 367467120.

Date/timePositionNaut miles runAvg speedWind from/ knotsBaromVisibWave heightAir tempDewpointWater temp
2015-Mar-04 11:21N 33°51' W 118°24'5 5.5
2015-Mar-04 10:24N 33°55' W 118°27'3 3.9
2015-Mar-04 09:33N 33°52' W 118°25'2 0.2
2015-Mar-04 01:17N 33°50' W 118°24'1 0.3
2015-Mar-03 22:34N 33°51' W 118°24'1 0.2
2015-Mar-03 18:23N 33°51' W 118°24'0 0.0
2015-Mar-03 05:31N 33°51' W 118°24'3 0.4
2015-Mar-02 22:34N 33°53' W 118°25'3 1.1
2015-Mar-02 20:14N 33°51' W 118°24'0 0.0
2015-Mar-02 19:20N 33°51' W 118°24'0 0.0
2015-Mar-02 18:29N 33°51' W 118°24'0 0.0
2015-Mar-02 17:32N 33°51' W 118°24'0 0.2
2015-Mar-02 16:34N 33°51' W 118°24'0 0.2
2015-Mar-02 15:33N 33°51' W 118°24'1 0.6
2015-Mar-02 14:33N 33°50' W 118°24'1 0.6
2015-Mar-02 13:32N 33°51' W 118°24'0 0.0
2015-Mar-02 12:32N 33°51' W 118°24'0 0.0
2015-Mar-02 11:32N 33°51' W 118°24'0 0.0
2015-Mar-02 10:29N 33°51' W 118°24'0 0.0
2015-Mar-02 09:29N 33°51' W 118°24'0 0.0
2015-Mar-02 08:32N 33°51' W 118°24'5 0.9
2015-Mar-02 03:08N 33°54' W 118°27'0 0.0
2015-Mar-02 01:07N 33°54' W 118°27'5 1.0
2015-Mar-01 20:26N 33°51' W 118°24'4 3.1
2015-Mar-01 19:09N 33°54' W 118°26'3 1.0
2015-Mar-01 16:13N 33°51' W 118°26'0 0.3
2015-Mar-01 14:31N 33°51' W 118°25'2 0.1
2015-Feb-28 23:18N 33°52' W 118°27'3 2.9
2015-Feb-28 22:16N 33°54' W 118°29'2 2.4
2015-Feb-28 21:28N 33°55' W 118°27'5 1.8
2015-Feb-28 18:30N 33°51' W 118°24'5 2.2
2015-Feb-28 16:14N 33°54' W 118°27'5 7.1
2015-Feb-28 15:33N 33°50' W 118°24'2 0.1
2015-Feb-28 01:12N 33°52' W 118°25'1 1.3
2015-Feb-28 00:18N 33°53' W 118°26'1 0.1
2015-Feb-27 19:09N 33°54' W 118°26'3 1.2
2015-Feb-27 16:33N 33°51' W 118°24'1 0.5
2015-Feb-27 14:29N 33°51' W 118°26'3 0.1
2015-Feb-26 14:32N 33°53' W 118°28'5 0.5
2015-Feb-26 05:21N 33°51' W 118°24'1 0.1
2015-Feb-25 23:33N 33°51' W 118°24'3 1.5
2015-Feb-25 21:25N 33°54' W 118°27'1 0.3
2015-Feb-25 19:30N 33°54' W 118°27'1 0.5
2015-Feb-25 18:27N 33°54' W 118°28'4 1.0
2015-Feb-25 14:33N 33°51' W 118°26'2 0.1
2015-Feb-24 21:27N 33°51' W 118°24'0 0.0
2015-Feb-24 20:33N 33°51' W 118°24'6 2.6
2015-Feb-24 18:17N 33°54' W 118°29'1 0.5
2015-Feb-24 15:30N 33°54' W 118°27'5 0.3
2015-Feb-23 20:32N 33°50' W 118°24'5 2.5
2015-Feb-23 18:33N 33°54' W 118°27'5 1.5
2015-Feb-23 15:15N 33°50' W 118°24'4 6.0
2015-Feb-23 14:33N 33°53' W 118°28'1 0.1
2015-Feb-23 04:14N 33°54' W 118°27'  
Track history (hours):
 
Tides and Currents Weather Stations Pressure Air Temp Water Temp Dewpoint Dewpoint Depression Visibility Wind Speed Wind Dir Waves Ship Positions

Ava Foss

Owner: Foss Maritime Company, Seattle, WA. More information available from US FCC via Universal Licensing System and Coast Guard Vessel Documentation Center.

Last reported at 2015-Mar-04 11:21 UTC. Time now 2015-Mar-04 12:52 UTC.
Position N 33°51' W 118°24'.

Length 10 m; draft 2.5 m.

Type: Passenger vessel. MMSI: 367467120.

Date/timePositionNaut miles runAvg speedWind from/ knotsBaromVisibWave heightAir tempDewpointWater temp
2015-Mar-04 11:21N 33°51' W 118°24'5 5.5
2015-Mar-04 10:24N 33°55' W 118°27'3 3.9
2015-Mar-04 09:33N 33°52' W 118°25'2 0.2
2015-Mar-04 01:17N 33°50' W 118°24'1 0.3
2015-Mar-03 22:34N 33°51' W 118°24'1 0.2
2015-Mar-03 18:23N 33°51' W 118°24'0 0.0
2015-Mar-03 05:31N 33°51' W 118°24'3 0.4
2015-Mar-02 22:34N 33°53' W 118°25'3 1.1
2015-Mar-02 20:14N 33°51' W 118°24'0 0.0
2015-Mar-02 19:20N 33°51' W 118°24'0 0.0
2015-Mar-02 18:29N 33°51' W 118°24'0 0.0
2015-Mar-02 17:32N 33°51' W 118°24'0 0.2
2015-Mar-02 16:34N 33°51' W 118°24'0 0.2
2015-Mar-02 15:33N 33°51' W 118°24'1 0.6
2015-Mar-02 14:33N 33°50' W 118°24'1 0.6
2015-Mar-02 13:32N 33°51' W 118°24'0 0.0
2015-Mar-02 12:32N 33°51' W 118°24'0 0.0
2015-Mar-02 11:32N 33°51' W 118°24'0 0.0
2015-Mar-02 10:29N 33°51' W 118°24'0 0.0
2015-Mar-02 09:29N 33°51' W 118°24'0 0.0
2015-Mar-02 08:32N 33°51' W 118°24'5 0.9
2015-Mar-02 03:08N 33°54' W 118°27'0 0.0
2015-Mar-02 01:07N 33°54' W 118°27'5 1.0
2015-Mar-01 20:26N 33°51' W 118°24'4 3.1
2015-Mar-01 19:09N 33°54' W 118°26'3 1.0
2015-Mar-01 16:13N 33°51' W 118°26'0 0.3
2015-Mar-01 14:31N 33°51' W 118°25'2 0.1
2015-Feb-28 23:18N 33°52' W 118°27'3 2.9
2015-Feb-28 22:16N 33°54' W 118°29'2 2.4
2015-Feb-28 21:28N 33°55' W 118°27'5 1.8
2015-Feb-28 18:30N 33°51' W 118°24'5 2.2
2015-Feb-28 16:14N 33°54' W 118°27'5 7.1
2015-Feb-28 15:33N 33°50' W 118°24'2 0.1
2015-Feb-28 01:12N 33°52' W 118°25'1 1.3
2015-Feb-28 00:18N 33°53' W 118°26'1 0.1
2015-Feb-27 19:09N 33°54' W 118°26'3 1.2
2015-Feb-27 16:33N 33°51' W 118°24'1 0.5
2015-Feb-27 14:29N 33°51' W 118°26'3 0.1
2015-Feb-26 14:32N 33°53' W 118°28'5 0.5
2015-Feb-26 05:21N 33°51' W 118°24'1 0.1
2015-Feb-25 23:33N 33°51' W 118°24'3 1.5
2015-Feb-25 21:25N 33°54' W 118°27'1 0.3
2015-Feb-25 19:30N 33°54' W 118°27'1 0.5
2015-Feb-25 18:27N 33°54' W 118°28'4 1.0
2015-Feb-25 14:33N 33°51' W 118°26'2 0.1
2015-Feb-24 21:27N 33°51' W 118°24'0 0.0
2015-Feb-24 20:33N 33°51' W 118°24'6 2.6
2015-Feb-24 18:17N 33°54' W 118°29'1 0.5
2015-Feb-24 15:30N 33°54' W 118°27'5 0.3
2015-Feb-23 20:32N 33°50' W 118°24'5 2.5
2015-Feb-23 18:33N 33°54' W 118°27'5 1.5
2015-Feb-23 15:15N 33°50' W 118°24'4 6.0
2015-Feb-23 14:33N 33°53' W 118°28'1 0.1
2015-Feb-23 04:14N 33°54' W 118°27'  

Dump ship's entire track history